Time;durP1;ratioP1;P1;durP2;ratioP2;P2;SDS_P1;SDS_P2;PMS_P1;PMS_P2;Temp;Humidity;BMP_temperature;BMP_pressure;BME280_temperature;BME280_humidity;BME280_pressure;Samples;Min_cycle;Max_cycle;Signal;HPM_P1;HPM_P2
2024/02/10 00:00:19;;;;;;;5.13;3.28;;;9.70;99.90;;;;;;5040567;28;20025;-93
2024/02/10 00:02:48;;;;;;;7.47;4.50;;;9.70;99.90;;;;;;5039910;28;20037;-91
2024/02/10 00:05:15;;;;;;;5.13;3.35;;;9.70;99.90;;;;;;5041261;28;20027;-92
2024/02/10 00:07:52;;;;;;;4.28;3.15;;;9.70;99.90;;;;;;5056650;28;20087;-91
2024/02/10 00:10:25;;;;;;;6.22;3.53;;;9.70;99.90;;;;;;5040433;28;20017;-92
2024/02/10 00:13:00;;;;;;;6.30;4.15;;;9.70;99.90;;;;;;5040820;28;20494;-92
2024/02/10 00:15:28;;;;;;;5.35;2.80;;;9.70;99.90;;;;;;5039247;28;20021;-92
2024/02/10 00:17:54;;;;;;;5.18;2.38;;;9.70;99.90;;;;;;5039980;28;20056;-91
2024/02/10 00:20:20;;;;;;;4.70;2.92;;;9.80;99.90;;;;;;5047737;28;20075;-91
2024/02/10 00:22:50;;;;;;;5.00;2.47;;;9.70;99.90;;;;;;5052109;28;20051;-92
2024/02/10 00:25:16;;;;;;;3.75;2.28;;;9.70;99.90;;;;;;5057863;28;20027;-91
2024/02/10 00:27:48;;;;;;;4.75;2.78;;;9.70;99.90;;;;;;5060366;28;20085;-91
2024/02/10 00:30:16;;;;;;;6.28;4.10;;;9.70;99.90;;;;;;5038587;28;20052;-92
2024/02/10 00:32:45;;;;;;;6.50;3.00;;;9.70;99.90;;;;;;5044983;28;20021;-92
2024/02/10 00:35:11;;;;;;;7.28;3.63;;;9.70;99.90;;;;;;5051673;28;20024;-92
2024/02/10 00:37:37;;;;;;;5.28;3.45;;;9.60;99.90;;;;;;5040152;28;20021;-90
2024/02/10 00:40:04;;;;;;;8.00;4.18;;;9.60;99.90;;;;;;5040535;28;20147;-91
2024/02/10 00:42:31;;;;;;;10.48;5.82;;;9.60;99.90;;;;;;5043319;28;20055;-91
2024/02/10 00:44:59;;;;;;;8.63;5.35;;;9.50;99.90;;;;;;5060687;28;20446;-92
2024/02/10 00:47:28;;;;;;;11.40;5.68;;;9.50;99.90;;;;;;5055095;28;20022;-91
2024/02/10 00:50:01;;;;;;;11.90;5.93;;;9.40;99.90;;;;;;5060639;28;20025;-91
2024/02/10 00:52:29;;;;;;;9.30;5.22;;;9.40;99.90;;;;;;5056345;28;20639;-92
2024/02/10 00:54:56;;;;;;;7.97;4.45;;;9.40;99.90;;;;;;5042383;28;20120;-91
2024/02/10 00:57:22;;;;;;;7.43;4.47;;;9.40;99.90;;;;;;5042272;28;20041;-92
2024/02/10 00:59:48;;;;;;;5.68;3.80;;;9.40;99.90;;;;;;5039762;28;20034;-92
2024/02/10 01:02:17;;;;;;;8.55;4.63;;;9.40;99.90;;;;;;5039103;28;20040;-91
2024/02/10 01:04:54;;;;;;;6.72;4.07;;;9.40;99.90;;;;;;5045360;28;20033;-91
2024/02/10 01:07:20;;;;;;;7.68;4.15;;;9.40;99.90;;;;;;5038891;28;20032;-92
2024/02/10 01:09:46;;;;;;;7.47;3.63;;;9.40;99.90;;;;;;5037801;28;20033;-92
2024/02/10 01:12:16;;;;;;;9.00;4.45;;;9.50;99.90;;;;;;5039639;28;20029;-92
2024/02/10 01:14:42;;;;;;;10.27;3.72;;;9.40;99.90;;;;;;5037557;28;20021;-92
2024/02/10 01:17:12;;;;;;;11.50;3.92;;;9.40;99.90;;;;;;5045917;28;20447;-92
2024/02/10 01:19:46;;;;;;;6.75;4.15;;;9.50;99.90;;;;;;5037017;28;20039;-91
2024/02/10 01:22:22;;;;;;;;;;;9.50;99.90;;;;;;5049265;28;20021;-91
2024/02/10 01:24:54;;;;;;;6.85;4.35;;;9.50;99.90;;;;;;5058357;28;19916;-92
2024/02/10 01:27:28;;;;;;;8.20;3.90;;;9.40;99.90;;;;;;5039476;28;20030;-92
2024/02/10 01:29:57;;;;;;;8.68;4.50;;;9.40;99.90;;;;;;5049668;28;20056;-91
2024/02/10 01:32:23;;;;;;;10.63;5.75;;;9.40;99.90;;;;;;5036930;28;20022;-92
2024/02/10 01:34:52;;;;;;;11.05;5.30;;;9.40;99.90;;;;;;5052145;28;20084;-91
2024/02/10 01:37:18;;;;;;;8.98;4.57;;;9.40;99.90;;;;;;5049877;28;20104;-92
2024/02/10 01:39:45;;;;;;;7.57;3.70;;;9.40;99.90;;;;;;5050514;28;20481;-91
2024/02/10 01:42:27;;;;;;;9.10;3.83;;;9.40;99.90;;;;;;5048316;28;20109;-92
2024/02/10 01:44:53;;;;;;;7.07;3.92;;;9.40;99.90;;;;;;5039688;28;20396;-92
2024/02/10 01:47:20;;;;;;;7.47;3.63;;;9.40;99.90;;;;;;5036601;28;20025;-91
2024/02/10 01:49:46;;;;;;;8.23;4.22;;;9.40;99.90;;;;;;5049964;28;20372;-91
2024/02/10 01:52:12;;;;;;;8.10;3.45;;;9.40;99.90;;;;;;5039346;28;20032;-92
2024/02/10 01:54:39;;;;;;;9.68;3.88;;;9.40;99.90;;;;;;5037470;28;20056;-91
2024/02/10 01:57:06;;;;;;;7.03;4.13;;;9.40;99.90;;;;;;5038470;28;20030;-92
2024/02/10 01:59:38;;;;;;;6.32;3.72;;;9.40;99.90;;;;;;5036991;28;20033;-91
2024/02/10 02:02:05;;;;;;;6.40;3.63;;;9.30;99.90;;;;;;5043940;28;20021;-94
2024/02/10 02:04:35;;;;;;;6.80;4.45;;;9.40;99.90;;;;;;5040074;28;20112;-92
2024/02/10 02:07:10;;;;;;;7.88;4.38;;;9.40;99.90;;;;;;5057697;28;20036;-92
2024/02/10 02:09:37;;;;;;;7.03;3.70;;;9.40;99.90;;;;;;5048879;28;20029;-92
2024/02/10 02:12:07;;;;;;;6.32;4.38;;;9.30;99.90;;;;;;5041476;28;20064;-91
2024/02/10 02:14:37;;;;;;;4.95;3.72;;;9.40;99.90;;;;;;5048662;28;20027;-92
2024/02/10 02:17:06;;;;;;;7.10;4.57;;;9.40;99.90;;;;;;5041351;28;20087;-91
2024/02/10 02:19:33;;;;;;;7.45;4.50;;;9.40;99.90;;;;;;5035890;28;20117;-92
2024/02/10 02:22:00;;;;;;;6.65;4.45;;;9.40;99.90;;;;;;5035172;28;20029;-92
2024/02/10 02:24:30;;;;;;;6.78;4.03;;;9.40;99.90;;;;;;5056283;28;20028;-92
2024/02/10 02:26:57;;;;;;;7.25;4.53;;;9.30;99.90;;;;;;5058578;28;20063;-91
2024/02/10 02:29:24;;;;;;;8.80;4.53;;;9.30;99.90;;;;;;5056747;28;20036;-91
2024/02/10 02:31:53;;;;;;;10.27;4.35;;;9.30;99.90;;;;;;5056379;28;20044;-93
2024/02/10 02:34:20;;;;;;;8.90;4.50;;;9.40;99.90;;;;;;5059858;28;20024;-91
2024/02/10 02:36:46;;;;;;;7.57;4.32;;;9.40;99.90;;;;;;5054106;28;20083;-92
2024/02/10 02:39:13;;;;;;;8.60;4.90;;;9.40;99.90;;;;;;5043483;28;20029;-92
2024/02/10 02:41:39;;;;;;;8.75;4.72;;;9.40;99.90;;;;;;5040172;28;20026;-92
2024/02/10 02:44:14;;;;;;;11.00;4.90;;;9.40;99.90;;;;;;5042441;28;20029;-91
2024/02/10 02:46:41;;;;;;;8.52;5.25;;;9.40;99.90;;;;;;5045649;28;20029;-91
2024/02/10 02:49:08;;;;;;;7.95;4.63;;;9.30;99.90;;;;;;5061657;28;20036;-93
2024/02/10 02:51:35;;;;;;;11.73;6.07;;;9.30;99.90;;;;;;5059770;28;20100;-92
2024/02/10 02:54:01;;;;;;;9.52;5.88;;;9.30;99.90;;;;;;5045940;28;20021;-91
2024/02/10 02:56:27;;;;;;;9.45;5.38;;;9.20;99.90;;;;;;5039901;28;20031;-92
2024/02/10 02:58:54;;;;;;;9.02;5.00;;;9.20;99.90;;;;;;5041953;28;20100;-91
2024/02/10 03:01:22;;;;;;;8.45;5.28;;;9.20;99.90;;;;;;5041340;28;20049;-91
2024/02/10 03:03:50;;;;;;;8.88;5.50;;;9.20;99.90;;;;;;5040553;28;20037;-93
2024/02/10 03:06:20;;;;;;;10.35;5.90;;;9.20;99.90;;;;;;5040359;28;20017;-92
2024/02/10 03:08:47;;;;;;;9.05;4.80;;;9.10;99.90;;;;;;5041477;28;20033;-92
2024/02/10 03:11:19;;;;;;;7.65;5.00;;;9.10;99.90;;;;;;5034571;28;20021;-91
2024/02/10 03:13:48;;;;;;;9.77;4.63;;;9.00;99.90;;;;;;5040442;28;20017;-91
2024/02/10 03:16:15;;;;;;;9.23;5.20;;;9.00;99.90;;;;;;5040817;28;20021;-92
2024/02/10 03:18:47;;;;;;;9.05;5.53;;;8.90;99.90;;;;;;5039809;28;20021;-91
2024/02/10 03:21:14;;;;;;;8.43;4.68;;;8.90;99.90;;;;;;5040409;28;20025;-91
2024/02/10 03:23:40;;;;;;;7.47;5.25;;;8.80;99.90;;;;;;5042977;28;20032;-91
2024/02/10 03:26:07;;;;;;;8.68;4.75;;;8.80;99.90;;;;;;5044072;28;20024;-91
2024/02/10 03:28:33;;;;;;;7.75;5.50;;;8.60;99.90;;;;;;5041570;28;20040;-91
2024/02/10 03:31:03;;;;;;;7.05;4.32;;;8.60;99.90;;;;;;5042263;28;20021;-91
2024/02/10 03:33:32;;;;;;;6.78;4.75;;;8.50;99.90;;;;;;5040438;28;20048;-91
2024/02/10 03:35:58;;;;;;;6.47;5.13;;;8.50;99.90;;;;;;5043719;28;20017;-92
2024/02/10 03:38:24;;;;;;;8.23;5.18;;;8.50;99.90;;;;;;5043272;28;20407;-93
2024/02/10 03:40:50;;;;;;;7.55;4.60;;;8.40;99.90;;;;;;5048154;28;20067;-91
2024/02/10 03:43:17;;;;;;;7.90;5.47;;;8.40;99.90;;;;;;5060849;28;20021;-91
2024/02/10 03:45:43;;;;;;;10.10;4.60;;;8.40;99.90;;;;;;5061011;28;20047;-92
2024/02/10 03:48:09;;;;;;;9.85;4.82;;;8.40;99.90;;;;;;5057219;28;20025;-91
2024/02/10 03:50:35;;;;;;;8.27;5.00;;;8.30;99.90;;;;;;5058174;28;20033;-92
2024/02/10 03:53:00;;;;;;;7.35;5.15;;;8.30;99.90;;;;;;5049820;28;20021;-92
2024/02/10 03:55:29;;;;;;;11.98;4.93;;;8.30;99.90;;;;;;5060753;28;20039;-92
2024/02/10 03:57:57;;;;;;;6.22;3.78;;;8.30;99.90;;;;;;5041896;28;20173;-93
2024/02/10 04:00:26;;;;;;;6.82;4.38;;;8.20;99.90;;;;;;5043069;28;20025;-92
2024/02/10 04:02:52;;;;;;;6.95;4.13;;;8.20;99.90;;;;;;5041473;28;20049;-92
2024/02/10 04:05:18;;;;;;;8.43;5.75;;;8.20;99.90;;;;;;5041511;28;20081;-91
2024/02/10 04:07:52;;;;;;;9.57;5.00;;;8.20;99.90;;;;;;5060420;28;20029;-92
2024/02/10 04:10:19;;;;;;;9.88;5.40;;;8.20;99.90;;;;;;5061080;28;20033;-92
2024/02/10 04:12:46;;;;;;;11.20;6.43;;;8.20;99.90;;;;;;5060450;28;20025;-92
2024/02/10 04:15:13;;;;;;;10.00;6.03;;;8.10;99.90;;;;;;5060563;28;20021;-91
2024/02/10 04:17:48;;;;;;;8.35;5.15;;;8.20;99.90;;;;;;5041291;28;20029;-91
2024/02/10 04:20:15;;;;;;;6.82;5.15;;;8.20;99.90;;;;;;5042471;28;20567;-91
2024/02/10 04:22:45;;;;;;;6.43;4.22;;;8.20;99.90;;;;;;5039735;28;20059;-92
2024/02/10 04:25:12;;;;;;;6.30;4.15;;;8.20;99.90;;;;;;5038528;28;20121;-91
2024/02/10 04:27:38;;;;;;;6.15;4.68;;;8.10;99.90;;;;;;5041102;28;20041;-92
2024/02/10 04:30:05;;;;;;;7.78;4.43;;;8.10;99.90;;;;;;5038633;28;20061;-91
2024/02/10 04:32:42;;;;;;;7.60;5.10;;;8.10;99.90;;;;;;5046296;28;20021;-91
2024/02/10 04:35:09;;;;;;;5.20;3.78;;;8.10;99.90;;;;;;5059883;28;20548;-91
2024/02/10 04:37:35;;;;;;;6.78;5.20;;;8.10;99.90;;;;;;5052161;28;20174;-92
2024/02/10 04:40:02;;;;;;;5.95;3.75;;;8.00;99.90;;;;;;5042666;28;20025;-91
2024/02/10 04:42:28;;;;;;;6.65;4.13;;;8.00;99.90;;;;;;5058166;28;20506;-92
2024/02/10 04:44:59;;;;;;;6.57;3.45;;;7.90;99.90;;;;;;5046708;28;20061;-91
2024/02/10 04:47:25;;;;;;;6.30;3.63;;;7.90;99.90;;;;;;5038168;28;20029;-93
2024/02/10 04:49:52;;;;;;;6.93;4.82;;;7.90;99.90;;;;;;5050769;28;20064;-92
2024/02/10 04:52:18;;;;;;;4.70;3.70;;;7.80;99.90;;;;;;5045662;28;20030;-91
2024/02/10 04:54:44;;;;;;;6.47;4.32;;;7.80;99.90;;;;;;5044217;28;20014;-91
2024/02/10 04:57:10;;;;;;;5.45;3.03;;;7.70;99.90;;;;;;5040720;28;20115;-93
2024/02/10 04:59:38;;;;;;;6.78;4.10;;;7.70;99.90;;;;;;5041201;28;20021;-92
2024/02/10 05:02:04;;;;;;;8.10;4.90;;;7.70;99.90;;;;;;5058986;28;20561;-92
2024/02/10 05:04:30;;;;;;;6.80;4.00;;;7.60;99.90;;;;;;5053268;28;20029;-91
2024/02/10 05:06:55;;;;;;;7.05;4.85;;;7.50;99.90;;;;;;5057784;28;20068;-93
2024/02/10 05:09:22;;;;;;;6.97;4.15;;;7.50;99.90;;;;;;5058497;28;20025;-93
2024/02/10 05:11:48;;;;;;;5.72;3.72;;;7.40;99.90;;;;;;5069257;28;20139;-91
2024/02/10 05:14:14;;;;;;;9.07;4.43;;;7.40;99.90;;;;;;5069705;28;20021;-94
2024/02/10 05:16:40;;;;;;;5.80;3.45;;;7.40;99.90;;;;;;5063440;28;20022;-91
2024/02/10 05:19:06;;;;;;;5.03;3.17;;;7.30;99.90;;;;;;5040548;28;20124;-91
2024/02/10 05:21:33;;;;;;;4.03;3.10;;;7.40;99.90;;;;;;5055084;28;20669;-91
2024/02/10 05:24:12;;;;;;;6.07;4.15;;;7.30;99.90;;;;;;5036821;28;20025;-91
2024/02/10 05:26:40;;;;;;;7.00;4.07;;;7.30;99.90;;;;;;5049692;28;20025;-91
2024/02/10 05:29:10;;;;;;;5.40;3.45;;;7.20;99.90;;;;;;5053926;28;20028;-91
2024/02/10 05:31:38;;;;;;;6.03;2.92;;;7.20;99.90;;;;;;5049584;28;20147;-90
2024/02/10 05:34:05;;;;;;;5.25;3.40;;;7.30;99.90;;;;;;5056761;28;20025;-91
2024/02/10 05:36:34;;;;;;;5.07;4.00;;;7.30;99.90;;;;;;5038513;28;20132;-91
2024/02/10 05:39:08;;;;;;;5.88;3.80;;;7.30;99.90;;;;;;5040289;28;20045;-91
2024/02/10 05:41:34;;;;;;;6.93;3.05;;;7.20;99.90;;;;;;5050903;28;20086;-92
2024/02/10 05:44:00;;;;;;;5.15;2.78;;;7.20;99.90;;;;;;5041321;28;20024;-91
2024/02/10 05:46:27;;;;;;;6.65;3.28;;;7.20;99.90;;;;;;5059093;28;20556;-90
2024/02/10 05:48:54;;;;;;;4.82;2.90;;;7.10;99.90;;;;;;5058072;28;20483;-91
2024/02/10 05:51:23;;;;;;;4.25;3.83;;;7.00;99.90;;;;;;5039704;28;20037;-91
2024/02/10 05:53:49;;;;;;;7.25;2.95;;;7.00;99.90;;;;;;5040412;28;20031;-91
2024/02/10 05:56:16;;;;;;;4.60;2.75;;;6.80;99.90;;;;;;5057045;28;20391;-92
2024/02/10 05:58:44;;;;;;;3.83;2.83;;;6.80;99.90;;;;;;5051778;28;20623;-91
2024/02/10 06:01:13;;;;;;;4.00;3.00;;;6.70;99.90;;;;;;5032957;28;20509;-91
2024/02/10 06:03:41;;;;;;;4.22;3.10;;;6.70;99.90;;;;;;5038147;28;20124;-92
2024/02/10 06:06:08;;;;;;;4.95;2.65;;;6.70;99.90;;;;;;5039085;28;20032;-91
2024/02/10 06:08:37;;;;;;;5.68;3.13;;;6.70;99.90;;;;;;5031891;28;20029;-91
2024/02/10 06:11:05;;;;;;;4.38;3.08;;;6.60;99.90;;;;;;5037495;28;20027;-91
2024/02/10 06:13:32;;;;;;;5.30;3.60;;;6.60;99.90;;;;;;5040319;28;20035;-92
2024/02/10 06:16:01;;;;;;;5.05;3.65;;;6.70;99.90;;;;;;5047222;28;20048;-91
2024/02/10 06:18:30;;;;;;;6.10;3.20;;;6.70;99.90;;;;;;5043698;28;20051;-92
2024/02/10 06:20:57;;;;;;;4.78;3.47;;;6.70;99.90;;;;;;5037034;28;20087;-92
2024/02/10 06:23:33;;;;;;;5.18;3.35;;;6.80;99.90;;;;;;5035759;28;20037;-91
2024/02/10 06:25:59;;;;;;;5.45;4.25;;;6.80;99.90;;;;;;5042366;28;20030;-91
2024/02/10 06:28:27;;;;;;;7.43;3.65;;;6.80;99.90;;;;;;5062867;28;20108;-92
2024/02/10 06:31:03;;;;;;;4.85;3.50;;;6.80;99.90;;;;;;5068539;28;20033;-93
2024/02/10 06:33:30;;;;;;;4.82;3.42;;;6.90;99.90;;;;;;5047364;28;20056;-92
2024/02/10 06:36:16;;;;;;;5.43;3.38;;;6.90;99.90;;;;;;5044870;28;20492;-94
2024/02/10 06:39:16;;;;;;;4.78;3.15;;;7.00;99.90;;;;;;5048336;28;20025;-94
2024/02/10 06:41:47;;;;;;;3.90;2.63;;;6.90;99.90;;;;;;5045225;28;20029;-94
2024/02/10 06:44:12;;;;;;;6.03;3.08;;;6.80;99.90;;;;;;5054023;28;20174;-93
2024/02/10 06:46:58;;;;;;;5.47;3.90;;;6.70;99.90;;;;;;5041165;28;20068;-94
2024/02/10 06:49:38;;;;;;;4.80;2.92;;;6.80;99.90;;;;;;5062434;28;20106;-94
2024/02/10 06:52:04;;;;;;;6.85;3.97;;;6.80;99.90;;;;;;5056319;28;20021;-94
2024/02/10 06:54:33;;;;;;;7.57;4.28;;;6.90;99.90;;;;;;5035365;28;20081;-95
2024/02/10 06:57:01;;;;;;;5.35;3.50;;;6.90;99.90;;;;;;5035976;28;20101;-93
2024/02/10 06:59:28;;;;;;;5.88;5.28;;;6.90;99.90;;;;;;5064174;28;20024;-94
2024/02/10 07:02:13;;;;;;;8.18;5.50;;;6.90;99.90;;;;;;5056618;28;20037;-93
2024/02/10 07:04:56;;;;;;;4.65;2.90;;;6.90;99.90;;;;;;5033558;28;20056;-93
2024/02/10 07:07:24;;;;;;;4.43;3.05;;;6.80;99.90;;;;;;5038356;28;20034;-94
2024/02/10 07:09:51;;;;;;;4.32;2.90;;;6.80;99.90;;;;;;5040432;28;20022;-94
2024/02/10 07:12:23;;;;;;;4.53;2.85;;;6.80;99.90;;;;;;5042539;28;20017;-93
2024/02/10 07:14:52;;;;;;;6.43;3.50;;;6.80;99.90;;;;;;5049386;28;20078;-94
2024/02/10 07:17:18;;;;;;;5.05;3.72;;;6.80;99.90;;;;;;5057768;28;20029;-93
2024/02/10 07:19:49;;;;;;;4.47;3.20;;;6.80;99.90;;;;;;5048136;28;20032;-94
2024/02/10 07:22:20;;;;;;;3.65;2.47;;;6.80;99.90;;;;;;5051269;28;20021;-94
2024/02/10 07:24:53;;;;;;;5.03;3.38;;;6.90;99.90;;;;;;5041879;28;20029;-92
2024/02/10 07:27:22;;;;;;;6.63;3.30;;;6.90;99.90;;;;;;5062246;28;20032;-94
2024/02/10 07:29:53;;;;;;;4.15;2.95;;;6.90;99.90;;;;;;5063570;28;20033;-93
2024/02/10 07:32:19;;;;;;;5.07;2.67;;;6.90;99.90;;;;;;5045426;28;20167;-93
2024/02/10 07:51:12;;;;;;;7.90;3.83;;;7.00;99.90;;;;;;5078900;22;20072;-93
2024/02/10 07:53:48;;;;;;;7.63;4.93;;;7.00;99.90;;;;;;5068691;28;20029;-94
2024/02/10 07:56:20;;;;;;;9.88;4.85;;;6.90;99.90;;;;;;5044341;28;20044;-94
2024/02/10 07:59:11;;;;;;;5.95;4.07;;;6.90;99.90;;;;;;5067417;28;20060;-96
2024/02/10 08:01:42;;;;;;;6.15;4.63;;;6.90;99.90;;;;;;5042534;28;20018;-95
2024/02/10 08:04:25;;;;;;;41.85;30.42;;;6.90;99.90;;;;;;5057475;28;20001;-95
2024/02/10 08:06:52;;;;;;;44.00;33.58;;;6.90;99.90;;;;;;5033468;28;20109;-96
2024/02/10 08:09:23;;;;;;;16.50;11.70;;;7.00;99.90;;;;;;5042337;28;20021;-94
2024/02/10 08:12:02;;;;;;;9.20;5.47;;;7.10;99.90;;;;;;5060602;28;20013;-95
2024/02/10 08:14:36;;;;;;;6.60;4.15;;;7.20;99.90;;;;;;5041611;28;20042;-93
2024/02/10 08:17:30;;;;;;;5.60;3.95;;;7.20;99.90;;;;;;5056896;28;20037;-96
2024/02/10 08:20:02;;;;;;;7.07;5.10;;;7.30;99.90;;;;;;5039454;28;20024;-96
2024/02/10 08:22:42;;;;;;;7.00;4.65;;;7.40;99.90;;;;;;5048609;28;20032;-94
2024/02/10 08:25:17;;;;;;;9.35;7.05;;;7.40;99.90;;;;;;5057110;28;20029;-95
2024/02/10 08:27:46;;;;;;;7.93;4.63;;;7.50;99.90;;;;;;5047950;28;20498;-93
2024/02/10 08:30:16;;;;;;;7.13;4.28;;;7.50;99.90;;;;;;5048993;28;20035;-94
2024/02/10 08:32:42;;;;;;;7.93;5.63;;;7.50;99.90;;;;;;5047988;28;20022;-93
2024/02/10 08:35:08;;;;;;;6.50;5.00;;;7.60;99.90;;;;;;5048491;28;20237;-95
2024/02/10 08:37:33;;;;;;;41.00;18.63;;;7.60;99.90;;;;;;5040819;28;20017;-95
2024/02/10 08:40:02;;;;;;;28.38;13.07;;;7.60;99.90;;;;;;5050812;28;20032;-93
2024/02/10 08:42:28;;;;;;;21.67;11.68;;;7.70;99.90;;;;;;5054427;28;20021;-95
2024/02/10 08:44:54;;;;;;;46.03;22.15;;;7.80;99.90;;;;;;5047180;28;20044;-94
2024/02/10 08:47:19;;;;;;;21.20;12.55;;;7.90;99.90;;;;;;5046705;28;20029;-92
2024/02/10 08:49:45;;;;;;;14.07;8.65;;;8.00;99.90;;;;;;5047333;28;20025;-94
2024/02/10 08:52:15;;;;;;;18.17;11.57;;;8.00;99.90;;;;;;5044811;28;20025;-94
2024/02/10 08:54:44;;;;;;;18.85;10.10;;;8.10;99.90;;;;;;5062106;28;20151;-94
2024/02/10 08:57:10;;;;;;;20.30;11.38;;;8.10;99.90;;;;;;5055871;28;20040;-95
2024/02/10 08:59:40;;;;;;;17.38;10.45;;;8.10;99.90;;;;;;5053931;28;20028;-91
2024/02/10 09:02:07;;;;;;;26.85;14.95;;;8.20;99.90;;;;;;5055398;28;20033;-94
2024/02/10 09:04:38;;;;;;;24.83;15.07;;;8.30;99.90;;;;;;5038476;28;20029;-94
2024/02/10 09:07:05;;;;;;;22.90;14.30;;;8.30;99.90;;;;;;5060960;28;20085;-95
2024/02/10 09:09:31;;;;;;;24.73;15.13;;;8.30;99.90;;;;;;5065970;28;20078;-94
2024/02/10 09:11:57;;;;;;;20.20;12.95;;;8.40;99.90;;;;;;5036360;28;20032;-94
2024/02/10 09:14:23;;;;;;;20.08;11.95;;;8.40;99.90;;;;;;5062854;28;20265;-96
2024/02/10 09:16:50;;;;;;;26.38;14.45;;;8.40;99.90;;;;;;5066477;28;20071;-94
2024/02/10 09:19:18;;;;;;;24.95;13.50;;;8.40;99.90;;;;;;5066369;28;20120;-94
2024/02/10 09:21:45;;;;;;;26.25;13.63;;;8.50;99.90;;;;;;5048395;28;20032;-94
2024/02/10 09:24:13;;;;;;;25.48;15.45;;;8.50;99.90;;;;;;5057068;28;20045;-93
2024/02/10 09:26:40;;;;;;;28.77;15.38;;;8.60;99.90;;;;;;5036288;28;20017;-94
2024/02/10 09:29:08;;;;;;;25.77;15.57;;;8.60;99.90;;;;;;5055016;28;20017;-96
2024/02/10 09:31:44;;;;;;;24.50;13.75;;;8.60;99.90;;;;;;5072158;28;20052;-96
2024/02/10 09:34:41;;;;;;;26.65;13.02;;;8.60;99.90;;;;;;5057036;28;20036;-93
2024/02/10 09:37:25;;;;;;;;;;;8.70;99.90;;;;;;5059034;28;20128;-96
2024/02/10 09:40:11;;;;;;;27.67;13.38;;;8.70;99.90;;;;;;5051177;28;19944;-94
2024/02/10 09:42:53;;;;;;;47.75;28.08;;;8.70;99.90;;;;;;5063643;28;20001;-95
2024/02/10 09:46:06;;;;;;;33.30;17.98;;;8.80;99.90;;;;;;5053794;28;20037;-96
2024/02/10 09:48:50;;;;;;;58.15;31.23;;;8.80;99.90;;;;;;5055681;28;20079;-96
2024/02/10 09:51:28;;;;;;;63.67;33.75;;;8.80;99.90;;;;;;5067808;28;20057;-96
2024/02/10 09:53:59;;;;;;;54.08;31.13;;;8.90;99.90;;;;;;5059677;28;20037;-95
2024/02/10 09:56:29;;;;;;;68.30;36.53;;;8.90;99.90;;;;;;5052836;28;20063;-96
2024/02/10 09:59:04;;;;;;;37.05;19.30;;;8.90;99.90;;;;;;5073204;28;20112;-95
2024/02/10 10:01:34;;;;;;;44.45;23.05;;;8.90;99.90;;;;;;5033687;28;20056;-94
2024/02/10 10:04:02;;;;;;;37.38;18.48;;;9.00;99.90;;;;;;5047725;28;20055;-96
2024/02/10 10:06:29;;;;;;;;;;;9.00;99.90;;;;;;5049905;28;20026;-95
2024/02/10 10:09:23;;;;;;;38.90;19.77;;;9.00;99.90;;;;;;5057674;28;19966;-95
2024/02/10 10:11:50;;;;;;;40.42;19.42;;;9.00;99.90;;;;;;5056250;28;20037;-96
2024/02/10 10:14:23;;;;;;;40.20;20.08;;;9.10;99.90;;;;;;5069492;28;20081;-96
2024/02/10 10:17:13;;;;;;;46.40;22.58;;;9.10;99.90;;;;;;5049931;28;20006;-96
2024/02/10 10:19:43;;;;;;;40.80;22.10;;;9.20;99.90;;;;;;5061729;28;20033;-93
2024/02/10 10:22:20;;;;;;;48.80;25.30;;;9.20;99.90;;;;;;5037112;28;20037;-95
2024/02/10 10:24:50;;;;;;;42.85;21.15;;;9.30;99.90;;;;;;5034454;28;20029;-95
2024/02/10 10:27:23;;;;;;;39.72;19.17;;;9.30;99.90;;;;;;5050777;28;20047;-95
2024/02/10 10:29:54;;;;;;;37.88;19.52;;;9.30;99.90;;;;;;5054140;28;20113;-95
2024/02/10 10:32:42;;;;;;;45.50;24.98;;;9.30;99.90;;;;;;5063189;28;20485;-96
2024/02/10 10:35:12;;;;;;;49.72;29.70;;;9.30;99.90;;;;;;5040692;28;20093;-96
2024/02/10 10:37:57;;;;;;;54.95;25.70;;;9.40;99.90;;;;;;5054242;28;20029;-96
2024/02/10 10:40:32;;;;;;;55.28;27.63;;;9.40;99.90;;;;;;5051166;28;20017;-96
2024/02/10 10:43:05;;;;;;;49.08;24.38;;;9.50;99.90;;;;;;5052123;23;20045;-95
2024/02/10 10:45:36;;;;;;;50.58;26.38;;;9.50;99.90;;;;;;5027296;28;20025;-94
2024/02/10 10:48:11;;;;;;;45.50;23.02;;;9.60;99.90;;;;;;5026930;28;20045;-94
2024/02/10 10:50:41;;;;;;;44.53;20.10;;;9.60;99.90;;;;;;5044514;28;20034;-95
2024/02/10 10:53:16;;;;;;;33.05;17.58;;;9.70;99.90;;;;;;5027015;28;20018;-94
2024/02/10 10:55:53;;;;;;;35.88;19.77;;;9.70;99.90;;;;;;5030858;28;20010;-94
2024/02/10 10:58:32;;;;;;;35.72;17.98;;;9.80;99.90;;;;;;5054539;28;20091;-94
2024/02/10 11:01:04;;;;;;;34.38;19.38;;;9.80;99.90;;;;;;5036464;28;20054;-95
2024/02/10 11:03:33;;;;;;;37.70;19.48;;;9.80;99.90;;;;;;5036520;28;20057;-95
2024/02/10 11:06:12;;;;;;;38.33;19.20;;;9.90;99.90;;;;;;5058008;28;20020;-96
2024/02/10 11:08:45;;;;;;;34.38;18.38;;;10.00;99.90;;;;;;5050978;28;20031;-96
2024/02/10 11:11:13;;;;;;;33.33;17.40;;;10.00;99.90;;;;;;5059029;28;20021;-95
2024/02/10 11:13:46;;;;;;;30.95;16.30;;;10.10;99.90;;;;;;5032240;28;20025;-95
2024/02/10 11:16:21;;;;;;;31.83;15.35;;;10.10;99.90;;;;;;5028416;28;20124;-96
2024/02/10 11:18:58;;;;;;;31.92;16.02;;;10.20;99.90;;;;;;5028845;28;20033;-94
2024/02/10 11:21:30;;;;;;;33.65;17.25;;;10.20;99.90;;;;;;5049991;28;20030;-95
2024/02/10 11:24:16;;;;;;;28.70;15.63;;;10.20;99.90;;;;;;5033089;28;20033;-95
2024/02/10 11:26:48;;;;;;;25.52;13.95;;;10.20;99.90;;;;;;5039757;28;20022;-95
2024/02/10 11:29:17;;;;;;;26.15;14.95;;;10.20;99.90;;;;;;5045570;28;20026;-94
2024/02/10 11:31:45;;;;;;;25.83;14.07;;;10.30;99.90;;;;;;5046046;28;20014;-95
2024/02/10 11:34:16;;;;;;;27.90;16.05;;;10.40;99.90;;;;;;5029912;28;20511;-94
2024/02/10 11:36:51;;;;;;;28.95;15.18;;;10.40;99.90;;;;;;5023981;28;20064;-94
2024/02/10 11:39:24;;;;;;;32.00;16.33;;;10.40;99.90;;;;;;5043990;28;20028;-94
2024/02/10 11:42:04;;;;;;;33.38;17.75;;;10.40;99.90;;;;;;5028894;28;20036;-94
2024/02/10 11:44:35;;;;;;;32.65;16.17;;;10.40;99.90;;;;;;5029392;28;20144;-95
2024/02/10 11:47:04;;;;;;;33.38;16.38;;;10.50;99.90;;;;;;5046192;28;20021;-95
2024/02/10 11:49:35;;;;;;;30.75;15.60;;;10.50;99.90;;;;;;5027700;28;20566;-95
2024/02/10 11:52:11;;;;;;;26.92;15.20;;;10.60;99.90;;;;;;5029911;28;20053;-96
2024/02/10 11:54:42;;;;;;;25.15;14.52;;;10.70;99.90;;;;;;5031575;28;20021;-94
2024/02/10 11:57:11;;;;;;;43.13;22.20;;;10.70;99.90;;;;;;5042834;28;20049;-94
2024/02/10 11:59:37;;;;;;;29.80;16.73;;;10.90;99.90;;;;;;5032842;28;20045;-95
2024/02/10 12:02:08;;;;;;;26.13;13.70;;;10.90;99.90;;;;;;5027999;28;20085;-96
2024/02/10 12:04:50;;;;;;;25.27;14.25;;;11.00;99.90;;;;;;5045925;28;20076;-94
2024/02/10 12:07:37;;;;;;;26.80;15.80;;;11.10;99.90;;;;;;5028376;28;20045;-96
2024/02/10 12:10:11;;;;;;;25.13;14.40;;;11.20;99.90;;;;;;5045355;28;20033;-94
2024/02/10 12:12:51;;;;;;;26.75;15.00;;;11.30;99.90;;;;;;5019322;28;20077;-95
2024/02/10 12:15:17;;;;;;;27.30;15.18;;;11.40;99.90;;;;;;5032063;28;20075;-94
2024/02/10 12:17:49;;;;;;;28.55;15.00;;;11.50;99.90;;;;;;5027534;28;20089;-95
2024/02/10 12:20:29;;;;;;;24.08;13.27;;;11.60;99.90;;;;;;5028273;28;20026;-94
2024/02/10 12:23:06;;;;;;;20.88;12.73;;;11.70;99.90;;;;;;5045671;28;20026;-95
2024/02/10 12:25:34;;;;;;;22.23;12.38;;;11.80;99.90;;;;;;5044565;28;20081;-95
2024/02/10 12:28:04;;;;;;;21.83;12.75;;;11.90;99.90;;;;;;5027654;28;20037;-95
2024/02/10 12:30:30;;;;;;;23.95;12.60;;;11.90;99.90;;;;;;5030227;28;20044;-94
2024/02/10 12:32:58;;;;;;;22.88;14.00;;;11.90;99.90;;;;;;5033748;28;20397;-95
2024/02/10 12:35:27;;;;;;;22.35;13.18;;;11.90;99.90;;;;;;5029185;28;20108;-96
2024/02/10 12:38:06;;;;;;;22.67;13.18;;;12.00;99.90;;;;;;5047154;28;20026;-95
2024/02/10 12:40:36;;;;;;;23.65;13.02;;;12.00;99.90;;;;;;5031212;28;20017;-95
2024/02/10 12:43:04;;;;;;;25.17;14.23;;;12.00;99.90;;;;;;5032325;28;20025;-95
2024/02/10 12:45:37;;;;;;;24.88;12.57;;;12.00;99.90;;;;;;5033938;28;20049;-95
2024/02/10 12:48:05;;;;;;;21.45;12.65;;;12.00;99.90;;;;;;5033849;28;20033;-95
2024/02/10 12:50:32;;;;;;;20.88;12.73;;;12.00;99.90;;;;;;5053404;28;20073;-95
2024/02/10 12:53:05;;;;;;;24.05;14.70;;;12.00;99.90;;;;;;5035485;28;20045;-95
2024/02/10 12:55:49;;;;;;;27.27;13.10;;;12.00;99.90;;;;;;5050319;28;20033;-94
2024/02/10 12:58:20;;;;;;;22.83;11.60;;;11.90;99.90;;;;;;5049659;28;20021;-96
2024/02/10 13:00:49;;;;;;;31.42;14.45;;;11.80;99.90;;;;;;5032055;28;20025;-95
2024/02/10 13:03:40;;;;;;;25.67;13.60;;;11.70;99.90;;;;;;5050355;28;20033;-95
2024/02/10 13:06:11;;;;;;;25.25;12.70;;;11.70;99.90;;;;;;5034081;28;20029;-95
2024/02/10 13:08:50;;;;;;;26.27;13.27;;;11.70;99.90;;;;;;5049776;28;20040;-96
2024/02/10 13:11:19;;;;;;;23.75;13.57;;;11.60;99.90;;;;;;5033442;28;20025;-95
2024/02/10 13:13:45;;;;;;;29.48;14.77;;;11.60;99.90;;;;;;5034467;28;20113;-96
2024/02/10 13:16:14;;;;;;;23.13;13.27;;;11.70;99.90;;;;;;5036590;28;20022;-94
2024/02/10 13:18:41;;;;;;;25.90;14.55;;;11.60;99.90;;;;;;5054575;28;20041;-95
2024/02/10 13:21:08;;;;;;;27.27;13.90;;;11.60;99.90;;;;;;5079732;22;20049;-93